sensor_id;sensor_type;location;lat;lon;timestamp;P1;durP1;ratioP1;P2;durP2;ratioP2
18249;SDS011;27980;52.126;5.572;2023-03-01T00:01:25;14.20;;;9.13;;
18249;SDS011;27980;52.126;5.572;2023-03-01T00:03:52;15.40;;;8.88;;
18249;SDS011;27980;52.126;5.572;2023-03-01T00:06:19;12.80;;;9.00;;
18249;SDS011;27980;52.126;5.572;2023-03-01T00:08:46;12.88;;;9.15;;
18249;SDS011;27980;52.126;5.572;2023-03-01T00:11:14;14.52;;;8.18;;
18249;SDS011;27980;52.126;5.572;2023-03-01T00:13:45;10.77;;;8.07;;
18249;SDS011;27980;52.126;5.572;2023-03-01T00:16:12;13.88;;;9.05;;
18249;SDS011;27980;52.126;5.572;2023-03-01T00:18:39;11.63;;;8.63;;
18249;SDS011;27980;52.126;5.572;2023-03-01T00:21:06;13.48;;;9.75;;
18249;SDS011;27980;52.126;5.572;2023-03-01T00:23:34;13.18;;;9.27;;
18249;SDS011;27980;52.126;5.572;2023-03-01T00:26:01;15.38;;;9.35;;
18249;SDS011;27980;52.126;5.572;2023-03-01T00:28:31;12.10;;;8.85;;
18249;SDS011;27980;52.126;5.572;2023-03-01T00:31:02;13.35;;;9.27;;
18249;SDS011;27980;52.126;5.572;2023-03-01T00:33:28;14.52;;;8.57;;
18249;SDS011;27980;52.126;5.572;2023-03-01T00:35:57;11.18;;;7.78;;
18249;SDS011;27980;52.126;5.572;2023-03-01T00:38:23;12.43;;;8.52;;
18249;SDS011;27980;52.126;5.572;2023-03-01T00:40:50;11.95;;;8.25;;
18249;SDS011;27980;52.126;5.572;2023-03-01T00:43:17;14.55;;;8.52;;
18249;SDS011;27980;52.126;5.572;2023-03-01T00:45:45;13.88;;;8.50;;
18249;SDS011;27980;52.126;5.572;2023-03-01T00:48:14;13.30;;;8.55;;
18249;SDS011;27980;52.126;5.572;2023-03-01T00:50:41;11.98;;;7.97;;
18249;SDS011;27980;52.126;5.572;2023-03-01T00:53:07;14.77;;;8.32;;
18249;SDS011;27980;52.126;5.572;2023-03-01T00:55:35;12.50;;;8.00;;
18249;SDS011;27980;52.126;5.572;2023-03-01T00:58:03;11.65;;;8.13;;
18249;SDS011;27980;52.126;5.572;2023-03-01T01:00:30;10.95;;;8.30;;
18249;SDS011;27980;52.126;5.572;2023-03-01T01:03:00;11.32;;;8.02;;
18249;SDS011;27980;52.126;5.572;2023-03-01T01:05:27;11.15;;;7.97;;
18249;SDS011;27980;52.126;5.572;2023-03-01T01:07:53;12.45;;;8.38;;
18249;SDS011;27980;52.126;5.572;2023-03-01T01:10:20;12.70;;;9.20;;
18249;SDS011;27980;52.126;5.572;2023-03-01T01:12:46;15.48;;;8.30;;
18249;SDS011;27980;52.126;5.572;2023-03-01T01:15:13;13.27;;;8.15;;
18249;SDS011;27980;52.126;5.572;2023-03-01T01:17:41;12.77;;;8.20;;
18249;SDS011;27980;52.126;5.572;2023-03-01T01:20:10;13.98;;;8.75;;
18249;SDS011;27980;52.126;5.572;2023-03-01T01:22:38;10.10;;;8.15;;
18249;SDS011;27980;52.126;5.572;2023-03-01T01:25:05;12.57;;;8.70;;
18249;SDS011;27980;52.126;5.572;2023-03-01T01:27:34;12.57;;;8.38;;
18249;SDS011;27980;52.126;5.572;2023-03-01T01:30:00;10.00;;;7.80;;
18249;SDS011;27980;52.126;5.572;2023-03-01T01:32:28;11.43;;;7.80;;
18249;SDS011;27980;52.126;5.572;2023-03-01T01:34:54;13.07;;;8.05;;
18249;SDS011;27980;52.126;5.572;2023-03-01T01:37:22;11.23;;;8.23;;
18249;SDS011;27980;52.126;5.572;2023-03-01T01:39:56;14.68;;;8.02;;
18249;SDS011;27980;52.126;5.572;2023-03-01T01:42:22;13.25;;;8.35;;
18249;SDS011;27980;52.126;5.572;2023-03-01T01:47:30;11.60;;;8.05;;
18249;SDS011;27980;52.126;5.572;2023-03-01T01:49:57;10.70;;;8.10;;
18249;SDS011;27980;52.126;5.572;2023-03-01T01:52:25;10.15;;;7.70;;
18249;SDS011;27980;52.126;5.572;2023-03-01T01:54:53;12.32;;;8.63;;
18249;SDS011;27980;52.126;5.572;2023-03-01T01:57:22;13.30;;;8.85;;
18249;SDS011;27980;52.126;5.572;2023-03-01T01:59:50;10.73;;;7.88;;
18249;SDS011;27980;52.126;5.572;2023-03-01T02:02:18;10.65;;;8.07;;
18249;SDS011;27980;52.126;5.572;2023-03-01T02:04:44;13.45;;;8.25;;
18249;SDS011;27980;52.126;5.572;2023-03-01T02:07:14;9.70;;;8.27;;
18249;SDS011;27980;52.126;5.572;2023-03-01T02:09:42;12.75;;;9.57;;
18249;SDS011;27980;52.126;5.572;2023-03-01T02:12:11;11.68;;;8.43;;
18249;SDS011;27980;52.126;5.572;2023-03-01T02:14:38;16.70;;;8.65;;
18249;SDS011;27980;52.126;5.572;2023-03-01T02:17:05;15.68;;;8.93;;
18249;SDS011;27980;52.126;5.572;2023-03-01T02:19:36;13.15;;;9.18;;
18249;SDS011;27980;52.126;5.572;2023-03-01T02:22:07;12.93;;;9.25;;
18249;SDS011;27980;52.126;5.572;2023-03-01T02:24:40;14.20;;;9.35;;
18249;SDS011;27980;52.126;5.572;2023-03-01T02:27:11;13.23;;;9.20;;
18249;SDS011;27980;52.126;5.572;2023-03-01T02:29:39;11.93;;;8.88;;
18249;SDS011;27980;52.126;5.572;2023-03-01T02:32:08;13.85;;;9.30;;
18249;SDS011;27980;52.126;5.572;2023-03-01T02:34:36;13.43;;;8.98;;
18249;SDS011;27980;52.126;5.572;2023-03-01T02:37:04;14.77;;;9.20;;
18249;SDS011;27980;52.126;5.572;2023-03-01T02:39:32;14.00;;;8.73;;
18249;SDS011;27980;52.126;5.572;2023-03-01T02:41:59;13.25;;;9.02;;
18249;SDS011;27980;52.126;5.572;2023-03-01T02:44:26;14.70;;;9.05;;
18249;SDS011;27980;52.126;5.572;2023-03-01T02:46:56;13.82;;;9.40;;
18249;SDS011;27980;52.126;5.572;2023-03-01T02:49:25;13.07;;;9.73;;
18249;SDS011;27980;52.126;5.572;2023-03-01T02:52:00;14.38;;;9.52;;
18249;SDS011;27980;52.126;5.572;2023-03-01T02:54:28;14.27;;;9.18;;
18249;SDS011;27980;52.126;5.572;2023-03-01T02:56:58;12.23;;;9.73;;
18249;SDS011;27980;52.126;5.572;2023-03-01T02:59:26;12.93;;;9.13;;
18249;SDS011;27980;52.126;5.572;2023-03-01T03:01:56;13.43;;;9.07;;
18249;SDS011;27980;52.126;5.572;2023-03-01T03:04:22;13.35;;;9.13;;
18249;SDS011;27980;52.126;5.572;2023-03-01T03:06:50;12.80;;;9.85;;
18249;SDS011;27980;52.126;5.572;2023-03-01T03:09:16;13.07;;;9.35;;
18249;SDS011;27980;52.126;5.572;2023-03-01T03:11:43;14.05;;;9.65;;
18249;SDS011;27980;52.126;5.572;2023-03-01T03:14:10;12.63;;;9.77;;
18249;SDS011;27980;52.126;5.572;2023-03-01T03:16:39;12.20;;;10.15;;
18249;SDS011;27980;52.126;5.572;2023-03-01T03:19:06;12.65;;;9.77;;
18249;SDS011;27980;52.126;5.572;2023-03-01T03:21:33;14.20;;;9.75;;
18249;SDS011;27980;52.126;5.572;2023-03-01T03:24:00;12.50;;;9.55;;
18249;SDS011;27980;52.126;5.572;2023-03-01T03:26:26;11.88;;;9.88;;
18249;SDS011;27980;52.126;5.572;2023-03-01T03:28:53;13.77;;;9.93;;
18249;SDS011;27980;52.126;5.572;2023-03-01T03:31:19;14.90;;;10.20;;
18249;SDS011;27980;52.126;5.572;2023-03-01T03:33:46;13.15;;;10.48;;
18249;SDS011;27980;52.126;5.572;2023-03-01T03:36:16;14.32;;;9.95;;
18249;SDS011;27980;52.126;5.572;2023-03-01T03:38:43;16.27;;;10.02;;
18249;SDS011;27980;52.126;5.572;2023-03-01T03:41:11;13.98;;;10.57;;
18249;SDS011;27980;52.126;5.572;2023-03-01T03:43:38;14.63;;;10.50;;
18249;SDS011;27980;52.126;5.572;2023-03-01T03:46:06;15.35;;;10.70;;
18249;SDS011;27980;52.126;5.572;2023-03-01T03:48:33;12.55;;;9.93;;
18249;SDS011;27980;52.126;5.572;2023-03-01T03:50:59;14.18;;;10.65;;
18249;SDS011;27980;52.126;5.572;2023-03-01T03:53:27;15.82;;;10.55;;
18249;SDS011;27980;52.126;5.572;2023-03-01T03:55:55;15.32;;;10.05;;
18249;SDS011;27980;52.126;5.572;2023-03-01T03:58:22;12.93;;;9.77;;
18249;SDS011;27980;52.126;5.572;2023-03-01T04:00:50;13.00;;;9.88;;
18249;SDS011;27980;52.126;5.572;2023-03-01T04:03:17;14.65;;;10.88;;
18249;SDS011;27980;52.126;5.572;2023-03-01T04:05:45;12.55;;;10.60;;
18249;SDS011;27980;52.126;5.572;2023-03-01T04:08:11;15.43;;;11.15;;
18249;SDS011;27980;52.126;5.572;2023-03-01T04:10:40;14.90;;;10.35;;
18249;SDS011;27980;52.126;5.572;2023-03-01T04:13:08;13.75;;;10.82;;
18249;SDS011;27980;52.126;5.572;2023-03-01T04:15:35;16.63;;;9.93;;
18249;SDS011;27980;52.126;5.572;2023-03-01T04:18:02;14.80;;;10.88;;
18249;SDS011;27980;52.126;5.572;2023-03-01T04:20:29;14.35;;;11.07;;
18249;SDS011;27980;52.126;5.572;2023-03-01T04:22:57;15.43;;;11.35;;
18249;SDS011;27980;52.126;5.572;2023-03-01T04:25:24;16.70;;;11.60;;
18249;SDS011;27980;52.126;5.572;2023-03-01T04:27:52;16.65;;;11.20;;
18249;SDS011;27980;52.126;5.572;2023-03-01T04:30:19;14.73;;;10.77;;
18249;SDS011;27980;52.126;5.572;2023-03-01T04:32:45;16.05;;;11.15;;
18249;SDS011;27980;52.126;5.572;2023-03-01T04:35:11;13.50;;;10.50;;
18249;SDS011;27980;52.126;5.572;2023-03-01T04:37:40;16.20;;;11.30;;
18249;SDS011;27980;52.126;5.572;2023-03-01T04:40:07;15.18;;;10.45;;
18249;SDS011;27980;52.126;5.572;2023-03-01T04:42:41;15.15;;;11.23;;
18249;SDS011;27980;52.126;5.572;2023-03-01T04:45:10;14.45;;;11.02;;
18249;SDS011;27980;52.126;5.572;2023-03-01T04:47:38;18.02;;;11.90;;
18249;SDS011;27980;52.126;5.572;2023-03-01T04:50:05;16.33;;;11.10;;
18249;SDS011;27980;52.126;5.572;2023-03-01T04:52:33;14.88;;;10.52;;
18249;SDS011;27980;52.126;5.572;2023-03-01T04:55:00;13.43;;;10.73;;
18249;SDS011;27980;52.126;5.572;2023-03-01T04:57:26;13.93;;;10.27;;
18249;SDS011;27980;52.126;5.572;2023-03-01T04:59:54;12.18;;;10.00;;
18249;SDS011;27980;52.126;5.572;2023-03-01T05:02:22;13.38;;;10.23;;
18249;SDS011;27980;52.126;5.572;2023-03-01T05:04:48;14.40;;;10.40;;
18249;SDS011;27980;52.126;5.572;2023-03-01T05:07:14;12.57;;;10.10;;
18249;SDS011;27980;52.126;5.572;2023-03-01T05:09:45;13.82;;;10.35;;
18249;SDS011;27980;52.126;5.572;2023-03-01T05:12:11;14.18;;;10.20;;
18249;SDS011;27980;52.126;5.572;2023-03-01T05:14:38;12.38;;;9.70;;
18249;SDS011;27980;52.126;5.572;2023-03-01T05:17:04;14.98;;;10.32;;
18249;SDS011;27980;52.126;5.572;2023-03-01T05:19:34;16.02;;;10.13;;
18249;SDS011;27980;52.126;5.572;2023-03-01T05:22:02;15.73;;;10.63;;
18249;SDS011;27980;52.126;5.572;2023-03-01T05:24:31;15.15;;;10.68;;
18249;SDS011;27980;52.126;5.572;2023-03-01T05:26:57;14.23;;;11.15;;
18249;SDS011;27980;52.126;5.572;2023-03-01T05:29:25;12.90;;;10.27;;
18249;SDS011;27980;52.126;5.572;2023-03-01T05:31:52;13.70;;;10.20;;
18249;SDS011;27980;52.126;5.572;2023-03-01T05:34:22;14.07;;;11.20;;
18249;SDS011;27980;52.126;5.572;2023-03-01T05:36:51;12.73;;;10.02;;
18249;SDS011;27980;52.126;5.572;2023-03-01T05:39:19;15.00;;;10.90;;
18249;SDS011;27980;52.126;5.572;2023-03-01T05:41:46;15.05;;;10.45;;
18249;SDS011;27980;52.126;5.572;2023-03-01T05:44:13;13.82;;;10.00;;
18249;SDS011;27980;52.126;5.572;2023-03-01T05:46:39;17.48;;;11.43;;
18249;SDS011;27980;52.126;5.572;2023-03-01T05:49:05;15.98;;;11.27;;
18249;SDS011;27980;52.126;5.572;2023-03-01T05:51:32;16.92;;;11.68;;
18249;SDS011;27980;52.126;5.572;2023-03-01T05:54:00;14.80;;;11.75;;
18249;SDS011;27980;52.126;5.572;2023-03-01T05:56:26;14.57;;;11.02;;
18249;SDS011;27980;52.126;5.572;2023-03-01T05:58:54;16.20;;;11.40;;
18249;SDS011;27980;52.126;5.572;2023-03-01T06:01:23;14.63;;;11.18;;
18249;SDS011;27980;52.126;5.572;2023-03-01T06:03:49;16.20;;;10.30;;
18249;SDS011;27980;52.126;5.572;2023-03-01T06:06:16;14.90;;;10.77;;
18249;SDS011;27980;52.126;5.572;2023-03-01T06:08:43;13.77;;;11.13;;
18249;SDS011;27980;52.126;5.572;2023-03-01T06:11:11;12.27;;;10.38;;
18249;SDS011;27980;52.126;5.572;2023-03-01T06:13:38;15.82;;;10.25;;
18249;SDS011;27980;52.126;5.572;2023-03-01T06:16:05;19.13;;;11.15;;
18249;SDS011;27980;52.126;5.572;2023-03-01T06:18:32;23.30;;;12.35;;
18249;SDS011;27980;52.126;5.572;2023-03-01T06:20:58;20.00;;;11.98;;
18249;SDS011;27980;52.126;5.572;2023-03-01T06:23:27;21.55;;;11.93;;
18249;SDS011;27980;52.126;5.572;2023-03-01T06:25:54;18.83;;;12.10;;
18249;SDS011;27980;52.126;5.572;2023-03-01T06:28:23;17.58;;;12.77;;
18249;SDS011;27980;52.126;5.572;2023-03-01T06:30:50;21.15;;;12.82;;
18249;SDS011;27980;52.126;5.572;2023-03-01T06:33:17;19.95;;;12.07;;
18249;SDS011;27980;52.126;5.572;2023-03-01T06:35:45;20.25;;;11.90;;
18249;SDS011;27980;52.126;5.572;2023-03-01T06:38:11;21.98;;;12.68;;
18249;SDS011;27980;52.126;5.572;2023-03-01T06:40:40;19.85;;;11.88;;
18249;SDS011;27980;52.126;5.572;2023-03-01T06:43:06;19.00;;;11.57;;
18249;SDS011;27980;52.126;5.572;2023-03-01T06:45:35;20.13;;;13.00;;
18249;SDS011;27980;52.126;5.572;2023-03-01T06:48:03;20.55;;;13.32;;
18249;SDS011;27980;52.126;5.572;2023-03-01T06:50:30;23.02;;;14.00;;
18249;SDS011;27980;52.126;5.572;2023-03-01T06:52:57;20.45;;;13.00;;
18249;SDS011;27980;52.126;5.572;2023-03-01T06:55:24;20.45;;;12.57;;
18249;SDS011;27980;52.126;5.572;2023-03-01T06:57:53;20.42;;;12.88;;
18249;SDS011;27980;52.126;5.572;2023-03-01T07:00:20;23.85;;;13.68;;
18249;SDS011;27980;52.126;5.572;2023-03-01T07:02:48;22.00;;;14.35;;
18249;SDS011;27980;52.126;5.572;2023-03-01T07:05:14;24.10;;;15.32;;
18249;SDS011;27980;52.126;5.572;2023-03-01T07:07:41;24.90;;;15.85;;
18249;SDS011;27980;52.126;5.572;2023-03-01T07:10:08;27.40;;;15.77;;
18249;SDS011;27980;52.126;5.572;2023-03-01T07:12:35;22.65;;;14.93;;
18249;SDS011;27980;52.126;5.572;2023-03-01T07:15:02;20.85;;;14.05;;
18249;SDS011;27980;52.126;5.572;2023-03-01T07:17:29;24.90;;;16.55;;
18249;SDS011;27980;52.126;5.572;2023-03-01T07:19:57;31.15;;;18.50;;
18249;SDS011;27980;52.126;5.572;2023-03-01T07:22:24;30.38;;;18.73;;
18249;SDS011;27980;52.126;5.572;2023-03-01T07:24:50;27.67;;;17.77;;
18249;SDS011;27980;52.126;5.572;2023-03-01T07:27:18;30.73;;;17.42;;
18249;SDS011;27980;52.126;5.572;2023-03-01T07:29:45;26.48;;;16.27;;
18249;SDS011;27980;52.126;5.572;2023-03-01T07:32:11;25.13;;;16.52;;
18249;SDS011;27980;52.126;5.572;2023-03-01T07:34:46;27.20;;;16.95;;
18249;SDS011;27980;52.126;5.572;2023-03-01T07:37:17;28.25;;;17.27;;
18249;SDS011;27980;52.126;5.572;2023-03-01T07:39:43;25.88;;;16.83;;
18249;SDS011;27980;52.126;5.572;2023-03-01T07:42:10;18.38;;;13.75;;
18249;SDS011;27980;52.126;5.572;2023-03-01T07:44:36;17.77;;;12.93;;
18249;SDS011;27980;52.126;5.572;2023-03-01T07:47:02;14.40;;;11.07;;
18249;SDS011;27980;52.126;5.572;2023-03-01T07:49:29;14.25;;;10.75;;
18249;SDS011;27980;52.126;5.572;2023-03-01T07:51:55;12.02;;;9.65;;
18249;SDS011;27980;52.126;5.572;2023-03-01T07:54:23;14.88;;;11.05;;
18249;SDS011;27980;52.126;5.572;2023-03-01T07:56:51;14.02;;;10.32;;
18249;SDS011;27980;52.126;5.572;2023-03-01T07:59:19;15.65;;;10.38;;
18249;SDS011;27980;52.126;5.572;2023-03-01T08:01:46;12.48;;;8.85;;
18249;SDS011;27980;52.126;5.572;2023-03-01T08:04:12;9.65;;;8.20;;
18249;SDS011;27980;52.126;5.572;2023-03-01T08:06:39;9.98;;;8.02;;
18249;SDS011;27980;52.126;5.572;2023-03-01T08:09:06;10.35;;;7.78;;
18249;SDS011;27980;52.126;5.572;2023-03-01T08:11:35;10.32;;;8.20;;
18249;SDS011;27980;52.126;5.572;2023-03-01T08:14:01;8.98;;;7.78;;
18249;SDS011;27980;52.126;5.572;2023-03-01T08:16:29;8.23;;;7.43;;
18249;SDS011;27980;52.126;5.572;2023-03-01T08:18:57;11.13;;;8.00;;
18249;SDS011;27980;52.126;5.572;2023-03-01T08:21:26;9.57;;;7.80;;
18249;SDS011;27980;52.126;5.572;2023-03-01T08:23:53;14.82;;;8.10;;
18249;SDS011;27980;52.126;5.572;2023-03-01T08:26:20;10.82;;;7.80;;
18249;SDS011;27980;52.126;5.572;2023-03-01T08:28:50;10.70;;;7.35;;
18249;SDS011;27980;52.126;5.572;2023-03-01T08:31:19;8.68;;;6.70;;
18249;SDS011;27980;52.126;5.572;2023-03-01T08:33:46;12.15;;;7.32;;
18249;SDS011;27980;52.126;5.572;2023-03-01T08:36:17;9.05;;;7.50;;
18249;SDS011;27980;52.126;5.572;2023-03-01T08:38:46;8.98;;;7.57;;
18249;SDS011;27980;52.126;5.572;2023-03-01T08:41:12;11.77;;;7.88;;
18249;SDS011;27980;52.126;5.572;2023-03-01T08:43:39;9.25;;;7.55;;
18249;SDS011;27980;52.126;5.572;2023-03-01T08:46:07;8.65;;;7.70;;
18249;SDS011;27980;52.126;5.572;2023-03-01T08:48:33;9.20;;;7.63;;
18249;SDS011;27980;52.126;5.572;2023-03-01T08:51:06;13.20;;;8.00;;
18249;SDS011;27980;52.126;5.572;2023-03-01T08:53:32;9.73;;;7.25;;
18249;SDS011;27980;52.126;5.572;2023-03-01T08:55:59;9.20;;;7.00;;
18249;SDS011;27980;52.126;5.572;2023-03-01T08:58:27;9.85;;;6.82;;
18249;SDS011;27980;52.126;5.572;2023-03-01T09:00:56;8.77;;;6.20;;
18249;SDS011;27980;52.126;5.572;2023-03-01T09:03:24;7.97;;;6.38;;
18249;SDS011;27980;52.126;5.572;2023-03-01T09:05:51;7.38;;;6.25;;
18249;SDS011;27980;52.126;5.572;2023-03-01T09:08:18;8.18;;;6.22;;
18249;SDS011;27980;52.126;5.572;2023-03-01T09:10:46;8.77;;;5.97;;
18249;SDS011;27980;52.126;5.572;2023-03-01T09:13:12;9.63;;;6.43;;
18249;SDS011;27980;52.126;5.572;2023-03-01T09:15:39;6.75;;;5.70;;
18249;SDS011;27980;52.126;5.572;2023-03-01T09:18:05;7.10;;;5.90;;
18249;SDS011;27980;52.126;5.572;2023-03-01T09:20:33;6.93;;;6.00;;
18249;SDS011;27980;52.126;5.572;2023-03-01T09:23:00;7.55;;;6.40;;
18249;SDS011;27980;52.126;5.572;2023-03-01T09:25:28;6.85;;;5.93;;
18249;SDS011;27980;52.126;5.572;2023-03-01T09:27:54;6.50;;;5.63;;
18249;SDS011;27980;52.126;5.572;2023-03-01T09:30:21;6.53;;;5.30;;
18249;SDS011;27980;52.126;5.572;2023-03-01T09:32:47;6.43;;;5.32;;
18249;SDS011;27980;52.126;5.572;2023-03-01T09:35:16;5.10;;;4.55;;
18249;SDS011;27980;52.126;5.572;2023-03-01T09:37:44;5.28;;;4.20;;
18249;SDS011;27980;52.126;5.572;2023-03-01T09:40:12;5.60;;;4.38;;
18249;SDS011;27980;52.126;5.572;2023-03-01T09:42:45;4.40;;;3.97;;
18249;SDS011;27980;52.126;5.572;2023-03-01T09:45:15;6.10;;;4.28;;
18249;SDS011;27980;52.126;5.572;2023-03-01T09:47:46;6.78;;;4.70;;
18249;SDS011;27980;52.126;5.572;2023-03-01T09:50:14;7.35;;;4.55;;
18249;SDS011;27980;52.126;5.572;2023-03-01T09:52:42;6.30;;;4.78;;
18249;SDS011;27980;52.126;5.572;2023-03-01T09:55:15;7.65;;;4.60;;
18249;SDS011;27980;52.126;5.572;2023-03-01T09:57:47;7.82;;;4.95;;
18249;SDS011;27980;52.126;5.572;2023-03-01T10:00:26;7.57;;;5.05;;
18249;SDS011;27980;52.126;5.572;2023-03-01T10:02:57;6.05;;;3.78;;
18249;SDS011;27980;52.126;5.572;2023-03-01T10:05:29;6.53;;;4.22;;
18249;SDS011;27980;52.126;5.572;2023-03-01T10:07:59;5.20;;;4.10;;
18249;SDS011;27980;52.126;5.572;2023-03-01T10:10:32;7.00;;;3.70;;
18249;SDS011;27980;52.126;5.572;2023-03-01T10:13:01;3.75;;;3.15;;
18249;SDS011;27980;52.126;5.572;2023-03-01T10:15:31;4.78;;;3.53;;
18249;SDS011;27980;52.126;5.572;2023-03-01T10:18:00;6.55;;;3.80;;
18249;SDS011;27980;52.126;5.572;2023-03-01T10:20:33;5.47;;;3.78;;
18249;SDS011;27980;52.126;5.572;2023-03-01T10:23:03;4.43;;;3.55;;
18249;SDS011;27980;52.126;5.572;2023-03-01T10:25:40;5.25;;;3.47;;
18249;SDS011;27980;52.126;5.572;2023-03-01T10:28:13;4.68;;;3.42;;
18249;SDS011;27980;52.126;5.572;2023-03-01T10:30:41;4.20;;;3.72;;
18249;SDS011;27980;52.126;5.572;2023-03-01T10:33:11;4.15;;;3.67;;
18249;SDS011;27980;52.126;5.572;2023-03-01T10:35:39;5.47;;;3.92;;
18249;SDS011;27980;52.126;5.572;2023-03-01T10:38:07;4.55;;;3.83;;
18249;SDS011;27980;52.126;5.572;2023-03-01T10:40:34;5.63;;;3.88;;
18249;SDS011;27980;52.126;5.572;2023-03-01T10:43:02;4.43;;;4.00;;
18249;SDS011;27980;52.126;5.572;2023-03-01T10:45:34;6.00;;;3.42;;
18249;SDS011;27980;52.126;5.572;2023-03-01T10:48:11;4.65;;;3.25;;
18249;SDS011;27980;52.126;5.572;2023-03-01T10:50:39;4.45;;;3.40;;
18249;SDS011;27980;52.126;5.572;2023-03-01T10:53:08;4.75;;;3.50;;
18249;SDS011;27980;52.126;5.572;2023-03-01T10:55:45;6.38;;;3.50;;
18249;SDS011;27980;52.126;5.572;2023-03-01T10:58:17;4.13;;;2.95;;
18249;SDS011;27980;52.126;5.572;2023-03-01T11:00:46;4.70;;;3.20;;
18249;SDS011;27980;52.126;5.572;2023-03-01T11:03:14;4.82;;;3.03;;
18249;SDS011;27980;52.126;5.572;2023-03-01T11:05:51;5.25;;;3.53;;
18249;SDS011;27980;52.126;5.572;2023-03-01T11:08:29;4.82;;;3.25;;
18249;SDS011;27980;52.126;5.572;2023-03-01T11:11:04;5.78;;;3.10;;
18249;SDS011;27980;52.126;5.572;2023-03-01T11:13:35;4.68;;;3.45;;
18249;SDS011;27980;52.126;5.572;2023-03-01T11:16:03;5.38;;;3.63;;
18249;SDS011;27980;52.126;5.572;2023-03-01T11:18:31;4.28;;;3.58;;
18249;SDS011;27980;52.126;5.572;2023-03-01T11:20:58;5.32;;;3.92;;
18249;SDS011;27980;52.126;5.572;2023-03-01T11:23:25;5.55;;;3.90;;
18249;SDS011;27980;52.126;5.572;2023-03-01T11:25:54;5.22;;;3.63;;
18249;SDS011;27980;52.126;5.572;2023-03-01T11:28:22;4.65;;;3.70;;
18249;SDS011;27980;52.126;5.572;2023-03-01T11:30:51;4.55;;;3.60;;
18249;SDS011;27980;52.126;5.572;2023-03-01T11:33:20;4.38;;;3.45;;
18249;SDS011;27980;52.126;5.572;2023-03-01T11:35:54;4.18;;;3.78;;
18249;SDS011;27980;52.126;5.572;2023-03-01T11:38:23;4.75;;;3.60;;
18249;SDS011;27980;52.126;5.572;2023-03-01T11:40:52;6.22;;;4.38;;
18249;SDS011;27980;52.126;5.572;2023-03-01T11:43:21;4.75;;;4.25;;
18249;SDS011;27980;52.126;5.572;2023-03-01T11:46:01;5.55;;;3.45;;
18249;SDS011;27980;52.126;5.572;2023-03-01T11:48:49;4.97;;;3.72;;
18249;SDS011;27980;52.126;5.572;2023-03-01T11:51:19;6.18;;;4.30;;
18249;SDS011;27980;52.126;5.572;2023-03-01T11:53:50;3.63;;;3.20;;
18249;SDS011;27980;52.126;5.572;2023-03-01T11:56:24;5.40;;;4.07;;
18249;SDS011;27980;52.126;5.572;2023-03-01T12:01:48;4.40;;;3.65;;
18249;SDS011;27980;52.126;5.572;2023-03-01T12:04:21;3.80;;;3.20;;
18249;SDS011;27980;52.126;5.572;2023-03-01T12:06:52;5.20;;;3.20;;
18249;SDS011;27980;52.126;5.572;2023-03-01T12:09:33;4.63;;;3.28;;
18249;SDS011;27980;52.126;5.572;2023-03-01T12:12:27;5.35;;;3.55;;
18249;SDS011;27980;52.126;5.572;2023-03-01T12:15:02;4.18;;;3.50;;
18249;SDS011;27980;52.126;5.572;2023-03-01T12:17:42;5.32;;;4.15;;
18249;SDS011;27980;52.126;5.572;2023-03-01T12:20:18;5.45;;;3.63;;
18249;SDS011;27980;52.126;5.572;2023-03-01T12:23:01;5.57;;;3.80;;
18249;SDS011;27980;52.126;5.572;2023-03-01T12:25:31;7.18;;;3.40;;
18249;SDS011;27980;52.126;5.572;2023-03-01T12:28:14;5.35;;;3.85;;
18249;SDS011;27980;52.126;5.572;2023-03-01T12:33:38;5.07;;;3.80;;
18249;SDS011;27980;52.126;5.572;2023-03-01T12:36:16;5.80;;;3.90;;
18249;SDS011;27980;52.126;5.572;2023-03-01T12:38:50;6.30;;;4.13;;
18249;SDS011;27980;52.126;5.572;2023-03-01T12:41:40;6.22;;;3.50;;
18249;SDS011;27980;52.126;5.572;2023-03-01T12:44:11;5.07;;;3.53;;
18249;SDS011;27980;52.126;5.572;2023-03-01T12:46:45;4.72;;;4.00;;
18249;SDS011;27980;52.126;5.572;2023-03-01T12:49:19;4.60;;;3.63;;
18249;SDS011;27980;52.126;5.572;2023-03-01T12:51:49;6.13;;;4.20;;
18249;SDS011;27980;52.126;5.572;2023-03-01T12:54:19;5.57;;;3.60;;
18249;SDS011;27980;52.126;5.572;2023-03-01T12:56:47;5.00;;;3.25;;
18249;SDS011;27980;52.126;5.572;2023-03-01T12:59:18;6.00;;;3.45;;
18249;SDS011;27980;52.126;5.572;2023-03-01T13:01:49;4.90;;;3.63;;
18249;SDS011;27980;52.126;5.572;2023-03-01T13:04:24;4.00;;;3.42;;
18249;SDS011;27980;52.126;5.572;2023-03-01T13:06:57;4.28;;;3.30;;
18249;SDS011;27980;52.126;5.572;2023-03-01T13:09:28;8.05;;;3.28;;
18249;SDS011;27980;52.126;5.572;2023-03-01T13:11:57;4.70;;;3.38;;
18249;SDS011;27980;52.126;5.572;2023-03-01T13:17:30;4.60;;;3.33;;
18249;SDS011;27980;52.126;5.572;2023-03-01T13:20:00;4.00;;;3.15;;
18249;SDS011;27980;52.126;5.572;2023-03-01T13:22:31;5.22;;;3.40;;
18249;SDS011;27980;52.126;5.572;2023-03-01T13:25:01;4.43;;;3.40;;
18249;SDS011;27980;52.126;5.572;2023-03-01T13:27:28;6.00;;;3.97;;
18249;SDS011;27980;52.126;5.572;2023-03-01T13:29:59;4.35;;;3.92;;
18249;SDS011;27980;52.126;5.572;2023-03-01T13:32:30;4.30;;;3.70;;
18249;SDS011;27980;52.126;5.572;2023-03-01T13:34:59;3.60;;;3.30;;
18249;SDS011;27980;52.126;5.572;2023-03-01T13:37:27;4.43;;;3.60;;
18249;SDS011;27980;52.126;5.572;2023-03-01T13:39:55;4.43;;;3.30;;
18249;SDS011;27980;52.126;5.572;2023-03-01T13:42:37;5.38;;;3.13;;
18249;SDS011;27980;52.126;5.572;2023-03-01T13:45:15;5.55;;;3.60;;
18249;SDS011;27980;52.126;5.572;2023-03-01T13:47:43;4.63;;;3.53;;
18249;SDS011;27980;52.126;5.572;2023-03-01T13:50:18;4.97;;;3.72;;
18249;SDS011;27980;52.126;5.572;2023-03-01T13:52:45;5.47;;;3.42;;
18249;SDS011;27980;52.126;5.572;2023-03-01T13:55:17;7.00;;;3.55;;
18249;SDS011;27980;52.126;5.572;2023-03-01T13:57:47;4.10;;;3.17;;
18249;SDS011;27980;52.126;5.572;2023-03-01T14:00:25;6.20;;;3.35;;
18249;SDS011;27980;52.126;5.572;2023-03-01T14:02:59;4.13;;;3.40;;
18249;SDS011;27980;52.126;5.572;2023-03-01T14:05:27;5.32;;;3.50;;
18249;SDS011;27980;52.126;5.572;2023-03-01T14:07:55;4.28;;;3.40;;
18249;SDS011;27980;52.126;5.572;2023-03-01T14:10:21;5.88;;;3.67;;
18249;SDS011;27980;52.126;5.572;2023-03-01T14:12:48;4.18;;;3.65;;
18249;SDS011;27980;52.126;5.572;2023-03-01T14:15:19;5.78;;;3.78;;
18249;SDS011;27980;52.126;5.572;2023-03-01T14:17:55;4.85;;;3.60;;
18249;SDS011;27980;52.126;5.572;2023-03-01T14:20:25;5.93;;;3.40;;
18249;SDS011;27980;52.126;5.572;2023-03-01T14:22:55;4.53;;;3.28;;
18249;SDS011;27980;52.126;5.572;2023-03-01T14:25:25;4.00;;;3.30;;
18249;SDS011;27980;52.126;5.572;2023-03-01T14:27:58;4.47;;;3.70;;
18249;SDS011;27980;52.126;5.572;2023-03-01T14:30:25;5.22;;;3.42;;
18249;SDS011;27980;52.126;5.572;2023-03-01T14:32:53;5.03;;;3.75;;
18249;SDS011;27980;52.126;5.572;2023-03-01T14:35:20;4.63;;;3.63;;
18249;SDS011;27980;52.126;5.572;2023-03-01T14:37:48;6.30;;;3.97;;
18249;SDS011;27980;52.126;5.572;2023-03-01T14:40:22;8.02;;;4.10;;
18249;SDS011;27980;52.126;5.572;2023-03-01T14:42:49;6.15;;;3.65;;
18249;SDS011;27980;52.126;5.572;2023-03-01T14:45:16;4.93;;;3.95;;
18249;SDS011;27980;52.126;5.572;2023-03-01T14:47:43;5.30;;;3.67;;
18249;SDS011;27980;52.126;5.572;2023-03-01T14:50:15;5.28;;;4.30;;
18249;SDS011;27980;52.126;5.572;2023-03-01T14:52:45;6.25;;;3.95;;
18249;SDS011;27980;52.126;5.572;2023-03-01T14:55:13;7.90;;;3.90;;
18249;SDS011;27980;52.126;5.572;2023-03-01T14:57:46;4.38;;;3.55;;